Time;durP1;ratioP1;P1;durP2;ratioP2;P2;SDS_P1;SDS_P2;PMS_P1;PMS_P2;Temp;Humidity;BMP_temperature;BMP_pressure;BME280_temperature;BME280_humidity;BME280_pressure;Samples;Min_cycle;Max_cycle;Signal;HPM_P1;HPM_P2
2022/04/16 00:02:02;;;;;;;49.92;7.03;;;;;;;;;;4993278;28;20031;-64
2022/04/16 00:04:29;;;;;;;29.90;6.28;;;;;;;;;;4993379;28;20030;-64
2022/04/16 00:06:56;;;;;;;33.00;6.72;;;;;;;;;;4993031;28;20034;-64
2022/04/16 00:09:22;;;;;;;47.45;7.03;;;;;;;;;;4984714;28;20026;-64
2022/04/16 00:11:48;;;;;;;36.67;6.70;;;;;;;;;;4973711;28;20034;-64
2022/04/16 00:14:15;;;;;;;51.45;7.82;;;;;;;;;;4973580;28;20035;-64
2022/04/16 00:16:41;;;;;;;29.52;7.20;;;;;;;;;;4991903;28;20033;-64
2022/04/16 00:19:09;;;;;;;40.75;6.60;;;;;;;;;;4992840;28;20030;-64
2022/04/16 00:21:38;;;;;;;33.30;7.10;;;;;;;;;;4992805;28;20035;-64
2022/04/16 00:24:04;;;;;;;101.80;8.68;;;;;;;;;;4992765;28;20072;-64
2022/04/16 00:26:30;;;;;;;29.70;6.95;;;;;;;;;;4993152;28;20062;-64
2022/04/16 00:28:59;;;;;;;13.70;5.32;;;;;;;;;;4992758;28;20395;-64
2022/04/16 00:31:28;;;;;;;21.65;5.90;;;;;;;;;;4993100;28;20030;-64
2022/04/16 00:33:54;;;;;;;18.52;6.25;;;;;;;;;;4992816;28;20522;-63
2022/04/16 00:36:21;;;;;;;46.47;7.25;;;;;;;;;;4992635;28;20026;-64
2022/04/16 00:38:47;;;;;;;60.33;8.00;;;;;;;;;;4979453;28;20042;-64
2022/04/16 00:41:13;;;;;;;33.17;6.93;;;;;;;;;;4978513;28;20036;-63
2022/04/16 00:43:40;;;;;;;38.13;6.30;;;;;;;;;;4992859;28;20027;-64
2022/04/16 00:46:06;;;;;;;37.13;6.40;;;;;;;;;;4992606;28;20045;-64
2022/04/16 00:48:32;;;;;;;15.20;5.72;;;;;;;;;;4992486;28;20480;-63
2022/04/16 00:50:59;;;;;;;43.22;6.63;;;;;;;;;;4992393;28;20080;-63
2022/04/16 00:53:25;;;;;;;28.25;6.18;;;;;;;;;;4992763;28;20030;-63
2022/04/16 00:55:51;;;;;;;23.23;5.57;;;;;;;;;;4992585;28;20104;-63
2022/04/16 00:58:18;;;;;;;29.15;5.93;;;;;;;;;;4992366;28;20032;-64
2022/04/16 01:00:44;;;;;;;89.10;7.93;;;;;;;;;;4992622;28;20077;-64
2022/04/16 01:03:10;;;;;;;75.68;8.20;;;;;;;;;;4992315;28;20080;-64
2022/04/16 01:05:37;;;;;;;32.08;6.22;;;;;;;;;;4992152;28;20055;-64
2022/04/16 01:08:04;;;;;;;30.25;6.30;;;;;;;;;;4975655;28;20062;-64
2022/04/16 01:10:31;;;;;;;49.17;6.97;;;;;;;;;;4972963;28;20088;-63
2022/04/16 01:12:58;;;;;;;70.43;7.38;;;;;;;;;;4972810;28;20503;-63
2022/04/16 01:15:24;;;;;;;56.72;6.85;;;;;;;;;;4973059;28;20072;-64
2022/04/16 01:17:51;;;;;;;65.68;6.38;;;;;;;;;;4973392;28;20027;-64
2022/04/16 01:20:18;;;;;;;39.60;6.22;;;;;;;;;;4992233;28;20034;-64
2022/04/16 01:22:45;;;;;;;55.78;6.50;;;;;;;;;;4992219;28;20038;-64
2022/04/16 01:25:11;;;;;;;55.50;6.47;;;;;;;;;;4992086;28;20050;-64
2022/04/16 01:27:43;;;;;;;54.63;7.18;;;;;;;;;;4992139;28;20480;-64
2022/04/16 01:30:10;;;;;;;45.50;8.18;;;;;;;;;;4991010;28;20026;-64
2022/04/16 01:32:37;;;;;;;65.00;7.38;;;;;;;;;;4991854;28;20044;-64
2022/04/16 01:35:05;;;;;;;107.03;8.32;;;;;;;;;;4989966;28;20046;-64
2022/04/16 01:37:34;;;;;;;43.00;5.88;;;;;;;;;;4972591;28;20494;-64
2022/04/16 01:40:04;;;;;;;63.00;7.25;;;;;;;;;;4972233;28;20096;-64
2022/04/16 01:42:32;;;;;;;97.50;8.05;;;;;;;;;;4985255;28;20521;-64
2022/04/16 01:45:00;;;;;;;82.05;7.18;;;;;;;;;;4991600;28;20026;-64
2022/04/16 01:47:26;;;;;;;45.50;7.05;;;;;;;;;;4991627;28;20058;-64
2022/04/16 01:49:53;;;;;;;47.88;7.68;;;;;;;;;;4991690;28;20034;-64
2022/04/16 01:52:19;;;;;;;94.63;10.48;;;;;;;;;;4991170;28;20030;-64
2022/04/16 01:54:45;;;;;;;44.80;7.20;;;;;;;;;;4991840;28;20474;-64
2022/04/16 01:57:11;;;;;;;51.97;8.48;;;;;;;;;;4991458;28;20047;-64
2022/04/16 01:59:37;;;;;;;50.85;6.90;;;;;;;;;;4991715;28;20395;-64
2022/04/16 02:02:03;;;;;;;52.72;7.90;;;;;;;;;;4991131;28;20026;-64
2022/04/16 02:04:32;;;;;;;39.10;6.30;;;;;;;;;;4984754;28;20023;-64
2022/04/16 02:06:58;;;;;;;30.38;5.82;;;;;;;;;;4971962;28;20035;-64
2022/04/16 02:09:25;;;;;;;31.30;5.63;;;;;;;;;;4972102;28;20080;-64
2022/04/16 02:11:51;;;;;;;35.47;5.18;;;;;;;;;;4985030;28;20138;-64
2022/04/16 02:14:17;;;;;;;28.45;5.30;;;;;;;;;;4991255;28;20026;-64
2022/04/16 02:16:43;;;;;;;55.72;6.00;;;;;;;;;;4991239;28;20071;-64
2022/04/16 02:19:09;;;;;;;43.55;5.97;;;;;;;;;;4991092;28;20035;-64
2022/04/16 02:21:35;;;;;;;54.30;6.13;;;;;;;;;;4991362;28;20026;-64
2022/04/16 02:24:02;;;;;;;65.95;6.50;;;;;;;;;;4991324;28;20379;-64
2022/04/16 02:26:28;;;;;;;60.65;5.90;;;;;;;;;;4991236;28;20045;-64
2022/04/16 02:28:54;;;;;;;40.55;5.38;;;;;;;;;;4991010;28;20562;-64
2022/04/16 02:31:23;;;;;;;50.13;5.80;;;;;;;;;;4990909;28;20030;-64
2022/04/16 02:33:49;;;;;;;38.90;5.68;;;;;;;;;;4980512;28;20027;-64
2022/04/16 02:36:16;;;;;;;16.30;4.43;;;;;;;;;;4971344;28;20380;-64
2022/04/16 02:38:42;;;;;;;11.68;4.28;;;;;;;;;;4971788;28;20019;-64
2022/04/16 02:41:08;;;;;;;12.98;4.28;;;;;;;;;;4971208;28;20030;-64
2022/04/16 02:43:34;;;;;;;25.52;4.47;;;;;;;;;;4981823;28;20077;-64
2022/04/16 02:48:45;;;;;;;21.27;4.43;;;;;;;;;;4990995;28;20061;-64
2022/04/16 02:51:12;;;;;;;20.33;4.10;;;;;;;;;;4990692;28;20034;-64
2022/04/16 02:53:38;;;;;;;17.58;4.35;;;;;;;;;;4990694;28;20030;-64
2022/04/16 02:56:04;;;;;;;65.82;5.88;;;;;;;;;;4990650;28;20400;-64
2022/04/16 02:58:30;;;;;;;24.30;4.68;;;;;;;;;;4990745;28;20091;-64
2022/04/16 03:00:56;;;;;;;38.10;4.38;;;;;;;;;;4990429;28;20036;-64
2022/04/16 03:03:22;;;;;;;22.58;3.90;;;;;;;;;;4973049;28;20039;-64
2022/04/16 03:05:48;;;;;;;35.47;4.78;;;;;;;;;;4971122;28;20056;-64
2022/04/16 03:08:15;;;;;;;44.85;4.65;;;;;;;;;;4990274;28;20087;-64
2022/04/16 03:10:41;;;;;;;39.13;4.75;;;;;;;;;;4990683;28;20019;-64
2022/04/16 03:13:08;;;;;;;34.03;4.45;;;;;;;;;;4990373;28;20038;-64
2022/04/16 03:18:19;;;;;;;39.05;4.47;;;;;;;;;;4990247;28;20407;-64
2022/04/16 03:20:45;;;;;;;40.55;4.45;;;;;;;;;;4990404;28;20045;-64
2022/04/16 03:23:11;;;;;;;72.45;6.25;;;;;;;;;;4990304;28;20034;-64
2022/04/16 03:25:44;;;;;;;49.47;4.57;;;;;;;;;;4990595;28;20087;-64
2022/04/16 03:28:10;;;;;;;37.58;4.57;;;;;;;;;;4990385;28;20353;-64
2022/04/16 03:30:36;;;;;;;14.63;3.35;;;;;;;;;;4986367;28;20366;-64
2022/04/16 03:33:03;;;;;;;30.13;4.43;;;;;;;;;;4970848;28;20077;-64
2022/04/16 03:35:29;;;;;;;32.03;4.55;;;;;;;;;;4970910;28;20542;-64
2022/04/16 03:37:55;;;;;;;34.33;4.45;;;;;;;;;;4971036;28;20063;-64
2022/04/16 03:40:24;;;;;;;52.38;4.90;;;;;;;;;;4979882;28;20039;-64
2022/04/16 03:42:56;;;;;;;62.45;5.20;;;;;;;;;;4990122;28;20042;-64
2022/04/16 03:45:27;;;;;;;31.95;4.57;;;;;;;;;;4990142;28;20043;-64
2022/04/16 03:47:56;;;;;;;23.52;4.15;;;;;;;;;;4990206;28;20424;-64
2022/04/16 03:50:23;;;;;;;82.78;5.72;;;;;;;;;;4989789;28;20034;-64
2022/04/16 03:52:50;;;;;;;41.58;4.68;;;;;;;;;;4990190;28;20464;-64
2022/04/16 04:00:51;;;;;;;44.35;4.10;;;;;;;;;;4975237;28;20113;-64
2022/04/16 04:03:18;;;;;;;31.35;3.65;;;;;;;;;;4970476;28;20050;-64
2022/04/16 04:05:53;;;;;;;60.90;4.45;;;;;;;;;;4977356;28;20101;-64
2022/04/16 04:08:20;;;;;;;35.97;3.50;;;;;;;;;;4989659;28;20035;-64
2022/04/16 04:10:46;;;;;;;17.17;3.08;;;;;;;;;;4990135;28;20023;-64
2022/04/16 04:13:13;;;;;;;27.10;3.80;;;;;;;;;;4989387;28;20041;-64
2022/04/16 04:15:39;;;;;;;25.52;2.80;;;;;;;;;;4993093;28;20030;-64
2022/04/16 04:18:06;;;;;;;29.02;3.60;;;;;;;;;;4993059;28;20121;-64
2022/04/16 04:20:32;;;;;;;12.77;2.92;;;;;;;;;;4993207;28;20030;-64
2022/04/16 04:22:58;;;;;;;21.55;4.07;;;;;;;;;;4993191;28;20110;-64
2022/04/16 04:25:24;;;;;;;8.00;2.80;;;;;;;;;;4992720;28;20022;-64
2022/04/16 04:27:50;;;;;;;27.65;4.00;;;;;;;;;;4992731;28;20758;-64
2022/04/16 04:30:17;;;;;;;26.70;3.63;;;;;;;;;;4992622;28;20380;-64
2022/04/16 04:32:43;;;;;;;79.20;5.05;;;;;;;;;;4993162;28;20064;-64
2022/04/16 04:35:09;;;;;;;29.63;3.67;;;;;;;;;;4992848;28;20030;-64
2022/04/16 04:37:36;;;;;;;44.55;4.03;;;;;;;;;;4992972;28;20087;-64
2022/04/16 04:40:02;;;;;;;53.65;5.43;;;;;;;;;;4993000;28;20394;-64
2022/04/16 04:42:29;;;;;;;60.15;4.65;;;;;;;;;;4992238;28;20039;-64
2022/04/16 04:44:55;;;;;;;61.40;4.75;;;;;;;;;;4992698;28;20035;-64
2022/04/16 04:47:22;;;;;;;46.75;4.68;;;;;;;;;;4992622;28;20034;-64
2022/04/16 04:49:48;;;;;;;79.88;5.25;;;;;;;;;;4992492;28;20058;-64
2022/04/16 04:52:21;;;;;;;74.13;5.13;;;;;;;;;;4992582;28;20054;-64
2022/04/16 04:54:47;;;;;;;31.42;3.70;;;;;;;;;;4992861;28;20480;-64
2022/04/16 04:57:13;;;;;;;49.28;4.38;;;;;;;;;;4987865;28;20039;-64
2022/04/16 04:59:39;;;;;;;86.13;6.10;;;;;;;;;;4973049;28;20080;-64
2022/04/16 05:02:06;;;;;;;57.47;5.05;;;;;;;;;;4972797;28;20041;-64
2022/04/16 05:04:32;;;;;;;49.30;4.53;;;;;;;;;;4972843;28;20039;-64
2022/04/16 05:06:58;;;;;;;28.48;4.07;;;;;;;;;;4973849;28;20046;-69
2022/04/16 05:09:24;;;;;;;22.45;3.67;;;;;;;;;;4979458;28;20027;-64
2022/04/16 05:11:51;;;;;;;50.25;3.85;;;;;;;;;;4983590;28;20030;-64
2022/04/16 05:14:17;;;;;;;48.22;4.80;;;;;;;;;;4980433;28;20408;-65
2022/04/16 05:16:43;;;;;;;27.77;4.07;;;;;;;;;;4987877;28;20034;-64
2022/04/16 05:19:09;;;;;;;11.05;3.28;;;;;;;;;;4988543;28;20036;-65
2022/04/16 05:21:35;;;;;;;14.35;3.05;;;;;;;;;;5005461;28;20038;-63
2022/04/16 05:24:03;;;;;;;5.10;2.95;;;;;;;;;;4985181;28;20031;-65
2022/04/16 05:26:29;;;;;;;5.57;3.17;;;;;;;;;;4977248;28;20030;-64
2022/04/16 05:28:56;;;;;;;3.97;2.80;;;;;;;;;;4992093;28;20387;-65
2022/04/16 05:31:26;;;;;;;3.55;2.45;;;;;;;;;;4983111;28;20388;-65
2022/04/16 05:36:37;;;;;;;5.63;2.97;;;;;;;;;;5032328;28;20112;-65
2022/04/16 05:39:03;;;;;;;7.82;2.88;;;;;;;;;;4971541;28;20105;-65
2022/04/16 05:41:29;;;;;;;3.78;2.45;;;;;;;;;;4971655;28;20039;-65
2022/04/16 05:43:56;;;;;;;4.47;2.70;;;;;;;;;;4979956;28;20097;-65
2022/04/16 05:46:22;;;;;;;5.75;3.13;;;;;;;;;;4978629;28;20037;-65
2022/04/16 05:48:48;;;;;;;9.73;2.55;;;;;;;;;;4979013;28;20417;-65
2022/04/16 05:51:15;;;;;;;11.65;2.70;;;;;;;;;;4980252;28;20122;-65
2022/04/16 05:53:41;;;;;;;10.70;3.38;;;;;;;;;;4976060;28;20026;-65
2022/04/16 05:56:09;;;;;;;8.82;3.20;;;;;;;;;;4979009;28;20055;-65
2022/04/16 05:58:36;;;;;;;10.52;3.28;;;;;;;;;;4975907;28;20042;-65
2022/04/16 06:01:03;;;;;;;8.23;3.40;;;;;;;;;;4977741;28;20044;-65
2022/04/16 06:03:30;;;;;;;17.75;3.60;;;;;;;;;;4979101;28;20034;-65
2022/04/16 06:05:57;;;;;;;16.15;3.35;;;;;;;;;;4978644;28;20073;-65
2022/04/16 06:08:23;;;;;;;10.48;3.28;;;;;;;;;;4978130;28;20181;-65
2022/04/16 06:10:49;;;;;;;10.80;3.25;;;;;;;;;;4977412;28;20076;-65
2022/04/16 06:13:15;;;;;;;14.07;3.15;;;;;;;;;;4975803;28;20042;-65
2022/04/16 06:15:41;;;;;;;9.68;2.90;;;;;;;;;;4973039;28;20038;-65
2022/04/16 06:18:08;;;;;;;15.73;3.22;;;;;;;;;;4976133;28;20060;-65
2022/04/16 06:20:35;;;;;;;4.90;3.05;;;;;;;;;;4977847;28;20049;-65
2022/04/16 06:23:01;;;;;;;5.03;3.05;;;;;;;;;;4977621;28;20045;-66
2022/04/16 06:25:28;;;;;;;6.60;3.72;;;;;;;;;;4977977;28;20072;-66
2022/04/16 06:27:54;;;;;;;7.03;3.95;;;;;;;;;;4977587;28;20018;-66
2022/04/16 06:30:21;;;;;;;9.38;5.15;;;;;;;;;;4977832;28;20446;-66
2022/04/16 06:32:47;;;;;;;11.48;5.82;;;;;;;;;;4976636;28;20030;-66
2022/04/16 06:35:13;;;;;;;15.80;7.18;;;;;;;;;;4979861;28;20092;-66
2022/04/16 06:37:41;;;;;;;13.57;6.15;;;;;;;;;;4974855;28;20052;-66
2022/04/16 06:40:08;;;;;;;7.93;4.07;;;;;;;;;;4976343;28;20027;-66
2022/04/16 06:42:35;;;;;;;5.43;2.63;;;;;;;;;;4975939;28;20030;-66
2022/04/16 06:45:01;;;;;;;7.07;2.40;;;;;;;;;;4977902;28;20555;-65
2022/04/16 06:47:30;;;;;;;3.50;2.30;;;;;;;;;;4978593;28;20049;-65
2022/04/16 06:49:56;;;;;;;9.00;2.63;;;;;;;;;;4975910;28;20380;-65
2022/04/16 06:52:23;;;;;;;7.20;3.00;;;;;;;;;;4978324;28;20087;-65
2022/04/16 06:54:49;;;;;;;6.28;2.63;;;;;;;;;;4979364;28;21546;-65
2022/04/16 06:57:15;;;;;;;4.47;2.53;;;;;;;;;;4988068;28;20074;-65
2022/04/16 06:59:42;;;;;;;5.97;2.55;;;;;;;;;;4977911;28;20030;-65
2022/04/16 07:02:09;;;;;;;5.70;3.20;;;;;;;;;;4977594;28;20031;-64
2022/04/16 07:04:35;;;;;;;5.90;2.85;;;;;;;;;;4975433;28;20068;-65
2022/04/16 07:07:01;;;;;;;8.88;3.38;;;;;;;;;;4975173;28;20084;-65
2022/04/16 07:09:27;;;;;;;30.88;16.10;;;;;;;;;;4978526;28;20061;-65
2022/04/16 07:11:53;;;;;;;32.42;16.33;;;;;;;;;;4979133;28;20023;-65
2022/04/16 07:14:20;;;;;;;22.67;10.82;;;;;;;;;;4981989;28;20482;-65
2022/04/16 07:16:46;;;;;;;11.20;5.35;;;;;;;;;;4986545;28;20034;-64
2022/04/16 07:19:12;;;;;;;11.25;5.55;;;;;;;;;;4972496;28;20035;-65
2022/04/16 07:21:38;;;;;;;9.38;4.88;;;;;;;;;;4975579;28;20070;-65
2022/04/16 07:24:05;;;;;;;11.55;5.32;;;;;;;;;;4973503;28;20027;-65
2022/04/16 07:26:31;;;;;;;8.38;4.97;;;;;;;;;;4974973;28;20027;-65
2022/04/16 07:28:57;;;;;;;10.07;4.95;;;;;;;;;;4975202;28;20035;-65
2022/04/16 07:31:23;;;;;;;9.60;5.72;;;;;;;;;;4976973;28;20141;-65
2022/04/16 07:33:49;;;;;;;11.38;5.03;;;;;;;;;;4973432;28;20053;-65
2022/04/16 07:36:16;;;;;;;7.78;4.90;;;;;;;;;;4979034;28;20026;-65
2022/04/16 07:38:43;;;;;;;8.15;5.05;;;;;;;;;;4976492;28;20039;-65
2022/04/16 07:41:09;;;;;;;7.57;5.13;;;;;;;;;;4980973;28;20038;-65
2022/04/16 07:43:36;;;;;;;9.07;6.07;;;;;;;;;;4975720;28;20427;-65
2022/04/16 07:46:02;;;;;;;8.60;5.68;;;;;;;;;;4981693;28;20045;-65
2022/04/16 07:48:28;;;;;;;11.13;7.32;;;;;;;;;;4978097;28;20035;-65
2022/04/16 07:50:54;;;;;;;9.40;6.05;;;;;;;;;;4978595;28;20504;-65
2022/04/16 07:53:20;;;;;;;8.73;6.47;;;;;;;;;;4980660;28;20113;-65
2022/04/16 07:55:47;;;;;;;15.68;8.55;;;;;;;;;;4976529;28;20043;-65
2022/04/16 07:58:13;;;;;;;14.15;8.10;;;;;;;;;;4990412;28;20110;-65
2022/04/16 08:00:39;;;;;;;10.50;6.63;;;;;;;;;;4989196;28;20111;-65
2022/04/16 08:03:06;;;;;;;10.38;5.30;;;;;;;;;;4974009;28;20041;-65
2022/04/16 08:05:32;;;;;;;11.60;7.53;;;;;;;;;;4974987;28;20023;-65
2022/04/16 08:07:58;;;;;;;10.98;7.25;;;;;;;;;;4979371;28;20047;-65
2022/04/16 08:10:24;;;;;;;12.15;6.15;;;;;;;;;;4978061;28;20038;-65
2022/04/16 08:12:50;;;;;;;10.38;6.88;;;;;;;;;;4984750;28;20101;-65
2022/04/16 08:15:16;;;;;;;13.10;8.82;;;;;;;;;;4984622;28;20369;-65
2022/04/16 08:17:42;;;;;;;15.93;9.18;;;;;;;;;;4981402;28;20036;-65
2022/04/16 08:20:09;;;;;;;14.75;9.60;;;;;;;;;;4980526;28;20026;-66
2022/04/16 08:22:35;;;;;;;17.48;10.20;;;;;;;;;;4976458;28;20111;-65
2022/04/16 08:27:48;;;;;;;16.00;8.02;;;;;;;;;;4983380;28;20038;-64
2022/04/16 08:30:14;;;;;;;13.45;8.52;;;;;;;;;;4978260;28;20018;-65
2022/04/16 08:32:41;;;;;;;13.25;8.38;;;;;;;;;;4983523;28;20030;-65
2022/04/16 08:35:10;;;;;;;13.30;7.82;;;;;;;;;;4979230;28;20023;-64
2022/04/16 08:37:36;;;;;;;14.77;8.88;;;;;;;;;;4980801;28;20492;-64
2022/04/16 08:40:04;;;;;;;15.25;9.57;;;;;;;;;;4981617;28;20096;-65
2022/04/16 08:42:30;;;;;;;10.77;7.32;;;;;;;;;;4979135;28;20081;-65
2022/04/16 08:44:57;;;;;;;11.32;7.93;;;;;;;;;;4984028;28;20034;-65
2022/04/16 08:47:24;;;;;;;12.23;7.75;;;;;;;;;;4980416;28;20525;-65
2022/04/16 08:49:50;;;;;;;11.60;7.10;;;;;;;;;;4981981;28;20077;-64
2022/04/16 08:52:17;;;;;;;11.10;6.70;;;;;;;;;;4986055;28;20043;-65
2022/04/16 08:54:43;;;;;;;12.00;7.57;;;;;;;;;;4980700;28;20380;-65
2022/04/16 08:57:10;;;;;;;11.68;6.63;;;;;;;;;;4982674;28;20095;-65
2022/04/16 08:59:36;;;;;;;12.73;7.10;;;;;;;;;;4981352;28;20022;-65
2022/04/16 09:02:02;;;;;;;11.00;7.40;;;;;;;;;;4977883;28;20033;-65
2022/04/16 09:04:32;;;;;;;14.88;6.93;;;;;;;;;;4979959;28;20031;-65
2022/04/16 09:07:02;;;;;;;12.57;7.20;;;;;;;;;;4981663;28;20039;-65
2022/04/16 09:09:28;;;;;;;8.38;5.85;;;;;;;;;;4984759;28;20031;-65
2022/04/16 09:11:55;;;;;;;11.10;5.53;;;;;;;;;;4982888;28;20109;-65
2022/04/16 09:14:32;;;;;;;9.35;5.70;;;;;;;;;;4978957;28;20038;-65
2022/04/16 09:16:58;;;;;;;7.55;5.55;;;;;;;;;;4981190;28;20026;-65
2022/04/16 09:19:28;;;;;;;9.32;5.90;;;;;;;;;;4983116;28;20503;-65
2022/04/16 09:21:55;;;;;;;6.32;5.20;;;;;;;;;;4976742;28;20045;-65
2022/04/16 09:24:21;;;;;;;7.93;5.25;;;;;;;;;;4980855;28;20064;-65
2022/04/16 09:26:49;;;;;;;7.97;4.75;;;;;;;;;;4981118;28;20027;-65
2022/04/16 09:29:18;;;;;;;6.63;4.72;;;;;;;;;;4986261;28;20023;-65
2022/04/16 09:31:49;;;;;;;11.38;5.28;;;;;;;;;;4983102;28;20085;-65
2022/04/16 09:34:17;;;;;;;8.73;4.63;;;;;;;;;;4979582;28;20530;-65
2022/04/16 09:36:44;;;;;;;6.82;5.18;;;;;;;;;;4984771;28;20135;-65
2022/04/16 09:39:10;;;;;;;6.07;4.75;;;;;;;;;;4980565;28;20511;-65
2022/04/16 09:41:38;;;;;;;9.90;4.93;;;;;;;;;;4980821;28;20033;-65
2022/04/16 09:44:05;;;;;;;8.68;4.70;;;;;;;;;;4975377;28;20093;-65
2022/04/16 09:46:31;;;;;;;11.85;5.28;;;;;;;;;;4986616;28;20069;-65
2022/04/16 09:49:01;;;;;;;7.85;4.88;;;;;;;;;;4984492;28;20038;-65
2022/04/16 09:51:27;;;;;;;7.10;4.60;;;;;;;;;;4978322;28;20058;-65
2022/04/16 09:53:53;;;;;;;7.47;4.05;;;;;;;;;;4976321;28;20038;-65
2022/04/16 09:56:20;;;;;;;6.43;4.35;;;;;;;;;;4978161;28;20125;-65
2022/04/16 09:58:54;;;;;;;8.38;4.88;;;;;;;;;;4980246;28;20039;-65
2022/04/16 10:01:24;;;;;;;5.70;4.50;;;;;;;;;;4982223;28;20019;-65
2022/04/16 10:03:54;;;;;;;5.50;4.32;;;;;;;;;;4980971;28;20042;-65
2022/04/16 10:06:21;;;;;;;9.40;4.47;;;;;;;;;;4980395;28;20066;-65
2022/04/16 10:08:51;;;;;;;6.22;4.60;;;;;;;;;;4988866;28;20498;-65
2022/04/16 10:11:42;;;;;;;7.50;4.35;;;;;;;;;;4981973;28;20034;-65
2022/04/16 10:14:11;;;;;;;7.35;4.30;;;;;;;;;;4979633;28;20027;-65
2022/04/16 10:16:46;;;;;;;5.60;4.22;;;;;;;;;;4978579;28;20778;-65
2022/04/16 10:19:16;;;;;;;9.13;4.60;;;;;;;;;;4979870;28;20126;-65
2022/04/16 10:21:42;;;;;;;7.00;4.55;;;;;;;;;;4979878;28;20064;-65
2022/04/16 10:24:09;;;;;;;7.63;4.60;;;;;;;;;;4980089;28;20407;-65
2022/04/16 10:26:39;;;;;;;5.78;4.20;;;;;;;;;;4979075;28;20033;-65
2022/04/16 10:29:05;;;;;;;8.52;3.72;;;;;;;;;;4978832;28;20151;-65
2022/04/16 10:31:33;;;;;;;10.15;4.00;;;;;;;;;;4984512;28;20027;-64
2022/04/16 10:34:05;;;;;;;5.65;3.88;;;;;;;;;;4982766;28;20084;-64
2022/04/16 10:36:33;;;;;;;6.63;4.18;;;;;;;;;;4978952;28;20045;-65
2022/04/16 10:39:00;;;;;;;7.63;3.90;;;;;;;;;;4982264;28;20064;-65
2022/04/16 10:41:27;;;;;;;5.82;3.38;;;;;;;;;;4987442;28;20049;-64
2022/04/16 10:44:00;;;;;;;6.15;4.50;;;;;;;;;;4972254;28;20118;-64
2022/04/16 10:46:44;;;;;;;4.28;3.88;;;;;;;;;;4982945;28;20027;-64
2022/04/16 10:49:12;;;;;;;12.48;8.82;;;;;;;;;;4983802;28;20061;-64
2022/04/16 10:51:38;;;;;;;5.45;3.55;;;;;;;;;;4979684;28;20113;-64
2022/04/16 10:54:11;;;;;;;5.03;3.45;;;;;;;;;;4980156;28;20452;-64
2022/04/16 10:56:39;;;;;;;5.13;3.30;;;;;;;;;;4985991;28;20051;-65
2022/04/16 10:59:07;;;;;;;3.88;3.40;;;;;;;;;;4989092;28;20417;-65
2022/04/16 11:01:34;;;;;;;7.22;3.63;;;;;;;;;;4979115;28;20092;-64
2022/04/16 11:04:13;;;;;;;8.13;3.35;;;;;;;;;;4980913;28;20096;-65
2022/04/16 11:06:42;;;;;;;4.03;2.72;;;;;;;;;;4976755;28;20049;-65
2022/04/16 11:09:11;;;;;;;5.60;3.05;;;;;;;;;;4977086;28;20057;-65
2022/04/16 11:11:38;;;;;;;5.30;3.63;;;;;;;;;;4983725;28;20027;-65
2022/04/16 11:14:05;;;;;;;4.05;3.08;;;;;;;;;;4981122;28;20058;-65
2022/04/16 11:16:31;;;;;;;4.68;3.20;;;;;;;;;;4970639;28;20027;-65
2022/04/16 11:18:57;;;;;;;7.85;4.10;;;;;;;;;;4980709;28;20037;-65
2022/04/16 11:21:29;;;;;;;8.98;4.20;;;;;;;;;;4986254;28;20117;-64
2022/04/16 11:23:55;;;;;;;4.88;3.30;;;;;;;;;;4976941;28;20039;-65
2022/04/16 11:34:45;;;;;;;4.90;2.78;;;;;;;;;;4977066;28;20208;-65
2022/04/16 11:37:14;;;;;;;5.82;3.45;;;;;;;;;;4976070;28;20439;-64
2022/04/16 11:39:40;;;;;;;4.15;3.13;;;;;;;;;;4977732;28;20060;-64
2022/04/16 11:42:10;;;;;;;3.92;3.20;;;;;;;;;;4978059;28;20522;-64
2022/04/16 11:44:40;;;;;;;5.95;3.13;;;;;;;;;;4981400;28;20086;-64
2022/04/16 11:47:08;;;;;;;7.68;2.92;;;;;;;;;;4977090;28;20039;-64
2022/04/16 11:49:34;;;;;;;4.35;3.08;;;;;;;;;;4983147;28;20171;-64
2022/04/16 11:52:01;;;;;;;5.22;2.80;;;;;;;;;;4986517;28;20029;-65
2022/04/16 11:54:30;;;;;;;6.57;2.83;;;;;;;;;;4983819;28;20030;-64
2022/04/16 11:56:57;;;;;;;3.47;2.50;;;;;;;;;;4970444;28;20038;-64
2022/04/16 11:59:24;;;;;;;4.07;1.98;;;;;;;;;;4970303;28;20034;-64
2022/04/16 12:02:07;;;;;;;4.10;1.98;;;;;;;;;;4976326;28;20049;-65
2022/04/16 12:04:34;;;;;;;5.00;1.42;;;;;;;;;;4976321;28;20030;-64
2022/04/16 12:07:00;;;;;;;2.90;1.80;;;;;;;;;;4970773;28;20491;-64
2022/04/16 12:09:26;;;;;;;2.95;1.90;;;;;;;;;;4973340;28;20038;-65
2022/04/16 12:11:55;;;;;;;3.97;1.52;;;;;;;;;;4973035;28;20323;-64
2022/04/16 12:14:23;;;;;;;2.75;1.80;;;;;;;;;;4980152;28;20026;-64
2022/04/16 12:16:59;;;;;;;2.75;1.83;;;;;;;;;;4971955;28;20023;-64
2022/04/16 12:19:33;;;;;;;5.55;1.85;;;;;;;;;;4974157;28;20418;-64
2022/04/16 12:22:00;;;;;;;5.88;1.95;;;;;;;;;;4974794;28;20103;-64
2022/04/16 12:24:27;;;;;;;5.68;2.17;;;;;;;;;;4977285;28;20095;-64
2022/04/16 12:26:53;;;;;;;4.78;1.65;;;;;;;;;;4980010;28;20791;-64
2022/04/16 12:29:26;;;;;;;6.78;2.10;;;;;;;;;;4977394;28;20029;-64
2022/04/16 12:31:56;;;;;;;4.65;2.22;;;;;;;;;;4981301;28;20034;-64
2022/04/16 12:34:22;;;;;;;2.85;1.90;;;;;;;;;;4977460;28;20030;-64
2022/04/16 12:36:48;;;;;;;5.03;2.65;;;;;;;;;;4975339;28;20106;-64
2022/04/16 12:39:14;;;;;;;7.35;2.92;;;;;;;;;;4983740;28;20054;-64
2022/04/16 12:41:40;;;;;;;7.05;2.28;;;;;;;;;;4983909;28;20038;-64
2022/04/16 12:44:06;;;;;;;6.25;2.35;;;;;;;;;;4989267;28;20032;-64
2022/04/16 12:46:32;;;;;;;7.95;2.97;;;;;;;;;;4987738;28;20483;-64
2022/04/16 12:48:58;;;;;;;9.73;3.80;;;;;;;;;;4986196;28;20037;-64
2022/04/16 12:51:26;;;;;;;4.75;2.78;;;;;;;;;;4988083;28;20510;-64
2022/04/16 12:53:53;;;;;;;7.30;3.13;;;;;;;;;;4977052;28;20362;-64
2022/04/16 12:56:19;;;;;;;8.23;3.08;;;;;;;;;;4982523;28;20050;-64
2022/04/16 12:58:46;;;;;;;5.43;3.72;;;;;;;;;;4983116;28;20039;-64
2022/04/16 13:01:12;;;;;;;5.70;3.38;;;;;;;;;;4982224;28;20042;-64
2022/04/16 13:03:38;;;;;;;6.20;3.42;;;;;;;;;;4983073;28;20080;-64
2022/04/16 13:06:04;;;;;;;5.00;3.95;;;;;;;;;;4984068;28;20463;-64
2022/04/16 13:08:30;;;;;;;7.65;5.05;;;;;;;;;;4983691;28;20039;-64
2022/04/16 13:10:56;;;;;;;6.63;4.30;;;;;;;;;;4985484;28;20031;-64
2022/04/16 13:13:27;;;;;;;12.57;5.00;;;;;;;;;;4981037;28;20091;-64
2022/04/16 13:15:53;;;;;;;9.05;4.60;;;;;;;;;;4978790;28;20038;-64
2022/04/16 13:18:19;;;;;;;8.50;4.35;;;;;;;;;;4973006;28;20019;-64
2022/04/16 13:20:46;;;;;;;7.60;5.22;;;;;;;;;;4978574;28;20379;-64
2022/04/16 13:23:12;;;;;;;9.85;5.10;;;;;;;;;;4978548;28;20034;-64
2022/04/16 13:25:38;;;;;;;9.90;4.43;;;;;;;;;;4980668;28;20019;-64
2022/04/16 13:28:04;;;;;;;9.15;5.97;;;;;;;;;;4985801;28;20046;-66
2022/04/16 13:30:30;;;;;;;8.57;4.68;;;;;;;;;;4975143;28;20046;-64
2022/04/16 13:32:56;;;;;;;9.13;5.40;;;;;;;;;;4978485;28;20034;-65
2022/04/16 13:35:22;;;;;;;7.10;4.60;;;;;;;;;;4971998;28;20027;-63
2022/04/16 13:37:48;;;;;;;7.95;4.75;;;;;;;;;;4975074;28;20101;-64
2022/04/16 13:43:00;;;;;;;10.68;5.32;;;;;;;;;;4986537;28;20042;-64
2022/04/16 13:45:26;;;;;;;13.73;5.43;;;;;;;;;;4990629;28;20034;-64
2022/04/16 13:47:52;;;;;;;8.88;5.25;;;;;;;;;;5027744;28;20031;-64
2022/04/16 13:50:18;;;;;;;10.57;4.10;;;;;;;;;;5064618;28;20029;-64
2022/04/16 13:52:46;;;;;;;5.82;4.35;;;;;;;;;;4987966;28;20041;-64
2022/04/16 13:55:12;;;;;;;9.77;4.30;;;;;;;;;;4985876;28;20023;-64
2022/04/16 13:57:39;;;;;;;6.80;4.43;;;;;;;;;;4972306;28;20035;-64
2022/04/16 14:00:06;;;;;;;10.80;4.10;;;;;;;;;;4983183;28;20033;-64
2022/04/16 14:02:37;;;;;;;7.70;4.03;;;;;;;;;;4973083;28;20573;-64
2022/04/16 14:07:48;;;;;;;6.32;4.40;;;;;;;;;;4972023;28;20035;-64
2022/04/16 14:10:14;;;;;;;6.50;4.00;;;;;;;;;;4974472;28;20023;-64
2022/04/16 14:12:41;;;;;;;9.93;4.22;;;;;;;;;;4977034;28;20027;-64
2022/04/16 14:15:08;;;;;;;8.35;4.10;;;;;;;;;;4973917;28;20026;-64
2022/04/16 14:17:34;;;;;;;8.18;4.30;;;;;;;;;;4990911;28;20061;-64
2022/04/16 14:20:00;;;;;;;9.60;5.88;;;;;;;;;;4990137;28;20026;-64
2022/04/16 14:22:26;;;;;;;10.52;6.53;;;;;;;;;;4991049;28;20113;-64
2022/04/16 14:24:52;;;;;;;10.05;5.43;;;;;;;;;;4985616;28;20023;-64
2022/04/16 14:27:18;;;;;;;13.88;6.80;;;;;;;;;;4983970;28;20026;-64
2022/04/16 14:29:44;;;;;;;8.90;6.55;;;;;;;;;;4979159;28;20487;-64
2022/04/16 14:32:11;;;;;;;7.57;4.75;;;;;;;;;;4989399;28;20077;-64
2022/04/16 14:34:37;;;;;;;7.60;4.22;;;;;;;;;;4976586;28;20022;-64
2022/04/16 14:37:03;;;;;;;10.23;4.85;;;;;;;;;;4980062;28;20038;-64
2022/04/16 14:39:29;;;;;;;11.57;4.35;;;;;;;;;;4991162;28;20030;-64
2022/04/16 14:41:57;;;;;;;6.10;4.38;;;;;;;;;;4987594;28;20069;-64
2022/04/16 14:44:23;;;;;;;5.07;3.58;;;;;;;;;;4987254;28;20022;-64
2022/04/16 14:46:50;;;;;;;6.13;3.80;;;;;;;;;;4991050;28;20505;-64
2022/04/16 14:49:17;;;;;;;4.10;2.95;;;;;;;;;;4990293;28;20097;-64
2022/04/16 14:51:43;;;;;;;6.15;2.78;;;;;;;;;;4990070;28;20045;-64
2022/04/16 14:54:10;;;;;;;8.82;3.45;;;;;;;;;;4977989;28;20109;-64
2022/04/16 14:56:37;;;;;;;5.97;3.17;;;;;;;;;;4990693;28;20042;-63
2022/04/16 14:59:04;;;;;;;5.25;3.58;;;;;;;;;;4990613;28;20041;-64
2022/04/16 15:01:33;;;;;;;10.10;3.60;;;;;;;;;;4990751;28;20035;-63
2022/04/16 15:03:59;;;;;;;7.47;3.55;;;;;;;;;;4986762;28;20475;-64
2022/04/16 15:06:25;;;;;;;5.25;2.53;;;;;;;;;;4990250;28;20106;-63